Guyton, GA

05:52 PM EDT del 19 Settembre 2014 (GMT -0400)
Ebenezer | Change Station
CLOSE
Current Station
Stazione meteo personale
Location: Rincon, GA
Altitudine: 69 ft
Stazioni meteo nelle vicinanze

Alt. 69 ft 32.33 °N, 81.24 °W | Updated 9 seconds ago

Coperto
Coperto
78.6 °F
Sembra 82 °F
N
4.5
Vento Variabile Vento da Nord
Gusts 6.0 mph

Oggi
Massima -- | Minima -- °F
--% Possibilità di precip.
Ieri
Massima -- | Minima -- °F
Precip. -- in
7:11 AM 7:26 PM
Luna calante, 16% visible
Pressione 30.01 in
Visibilità 10.0 miglia
Nuvole Alcuni 2700 ft
Nubi sparse 3500 ft
Molto nuvoloso 11000 ft
Molto nuvoloso 25000 ft
Indice di calore 82 °F
Punto di rugiada 78 °F
Umidità 99%
Piovosità 0.00 in
Spessore del manto nevoso Non disponibile.
Raggi UV 0.0 fuori da 12
Polline 7.40 fuori da 12
Qualità dell'aria Non disponibile.
Flu Activity Non disponibile.
METAR KSAV 192053Z 06011G15KT 10SM FEW027 SCT035 BKN110 BKN250 27/21 A3001 RMK AO2 SLP162 60001 T02720206 58006

More Conditions Fewer Conditions

Pressione 30.01 in
Visibilità 10.0 miglia
Nuvole Alcuni 2700 ft
Nubi sparse 3500 ft
Molto nuvoloso 11000 ft
Molto nuvoloso 25000 ft
Indice di calore 82 °F
Punto di rugiada 78 °F
Umidità 99%
Piovosità 0.00 in
Spessore del manto nevoso Non disponibile.
Raggi UV 0.0 fuori da 12
Polline 7.40 fuori da 12
Qualità dell'aria Non disponibile.
Flu Activity Non disponibile.
METAR KSAV 192053Z 06011G15KT 10SM FEW027 SCT035 BKN110 BKN250 27/21 A3001 RMK AO2 SLP162 60001 T02720206 58006

More Conditions Fewer Conditions

10-Day Weather Forecast

Almanac

Astronomia

Sep. 19, 2014 Alba Tramonto
Ora attuale 07:11 EDT 19:26 EDT
Crepuscolo civile 06:47 EDT 19:50 EDT
Crepuscolo nautico 06:18 EDT 20:19 EDT
Crepuscolo astronomico 05:49 EDT 20:48 EDT
Luna 03:07 EDT 16:44 EDT
Estensione della luce visibile 13h 03m
Lunghezza del giorno
12h 14m
Tomorrow will be 1m 58s shorter.
Luna calante, 16% of the Moon is Illuminated
Oggi
Luna calante
Set 24
Nuovo
Ott 1
Primo quarto
Ott 8
Luna piena
Ott 15
Ultimo quarto

Gli estremi di oggi

State Highs State Lows

Community

WunderPhotos

Upload Photos

1,754,703 foto caricate!

WunderBlogs® & News

By Dr. Jeff Masters
Director of Meteorology, Weather Underground
By Kari Strenfel
Meteorologist, Weather Underground
By Christopher C. Burt
Weather Historian, Weather Underground
September 19, 2014
September 19, 2014
September 19, 2014

Nearby

Profondità neve

Stazione Profondità Altitudine
Non sono state evidenziate nuove nevicate

Attività sismica

Città  Distanza Mag. Data & Ora
New Ellenton, South Carolina 80 miglia 2.6 16:38 EDT
2014-09-19
Minimo Magnitudo Mostrato è 2.5.

Temperature delle acque costiere

Località Temperatura
Nessun dato dalle stazioni

Stazioni meteo nelle vicinanze